sensor_id;sensor_type;location;lat;lon;timestamp;P1;durP1;ratioP1;P2;durP2;ratioP2
71127;SDS011;59249;59.736;30.568;2024-01-25T00:00:46;8.52;;;1.98;;
71127;SDS011;59249;59.736;30.568;2024-01-25T00:03:18;8.45;;;1.75;;
71127;SDS011;59249;59.736;30.568;2024-01-25T00:05:47;9.40;;;2.67;;
71127;SDS011;59249;59.736;30.568;2024-01-25T00:08:17;6.53;;;1.88;;
71127;SDS011;59249;59.736;30.568;2024-01-25T00:10:46;7.95;;;2.22;;
71127;SDS011;59249;59.736;30.568;2024-01-25T00:13:15;8.02;;;1.80;;
71127;SDS011;59249;59.736;30.568;2024-01-25T00:15:46;8.23;;;2.13;;
71127;SDS011;59249;59.736;30.568;2024-01-25T00:18:17;6.23;;;1.50;;
71127;SDS011;59249;59.736;30.568;2024-01-25T00:20:46;7.50;;;1.77;;
71127;SDS011;59249;59.736;30.568;2024-01-25T00:23:26;6.65;;;1.90;;
71127;SDS011;59249;59.736;30.568;2024-01-25T00:26:00;6.45;;;1.65;;
71127;SDS011;59249;59.736;30.568;2024-01-25T00:28:31;8.70;;;1.83;;
71127;SDS011;59249;59.736;30.568;2024-01-25T00:31:04;6.07;;;1.33;;
71127;SDS011;59249;59.736;30.568;2024-01-25T00:33:33;8.77;;;1.45;;
71127;SDS011;59249;59.736;30.568;2024-01-25T00:36:03;3.42;;;1.00;;
71127;SDS011;59249;59.736;30.568;2024-01-25T00:38:34;4.22;;;1.30;;
71127;SDS011;59249;59.736;30.568;2024-01-25T00:41:04;6.07;;;1.92;;
71127;SDS011;59249;59.736;30.568;2024-01-25T00:43:38;4.63;;;1.10;;
71127;SDS011;59249;59.736;30.568;2024-01-25T00:46:09;2.85;;;0.85;;
71127;SDS011;59249;59.736;30.568;2024-01-25T00:48:41;5.55;;;0.95;;
71127;SDS011;59249;59.736;30.568;2024-01-25T00:51:18;4.97;;;1.40;;
71127;SDS011;59249;59.736;30.568;2024-01-25T00:53:56;4.45;;;1.27;;
71127;SDS011;59249;59.736;30.568;2024-01-25T00:56:33;5.90;;;1.30;;
71127;SDS011;59249;59.736;30.568;2024-01-25T00:59:11;5.38;;;1.30;;
71127;SDS011;59249;59.736;30.568;2024-01-25T01:01:42;7.63;;;1.75;;
71127;SDS011;59249;59.736;30.568;2024-01-25T01:04:16;5.20;;;1.35;;
71127;SDS011;59249;59.736;30.568;2024-01-25T01:06:50;6.93;;;1.40;;
71127;SDS011;59249;59.736;30.568;2024-01-25T01:09:39;6.97;;;2.37;;
71127;SDS011;59249;59.736;30.568;2024-01-25T01:12:13;7.32;;;1.45;;
71127;SDS011;59249;59.736;30.568;2024-01-25T01:14:56;8.75;;;1.83;;
71127;SDS011;59249;59.736;30.568;2024-01-25T01:17:33;8.98;;;1.90;;
71127;SDS011;59249;59.736;30.568;2024-01-25T01:20:04;7.72;;;1.73;;
71127;SDS011;59249;59.736;30.568;2024-01-25T01:22:50;6.07;;;2.10;;
71127;SDS011;59249;59.736;30.568;2024-01-25T01:25:33;9.10;;;2.65;;
71127;SDS011;59249;59.736;30.568;2024-01-25T01:28:05;8.48;;;2.75;;
71127;SDS011;59249;59.736;30.568;2024-01-25T01:30:34;9.32;;;2.80;;
71127;SDS011;59249;59.736;30.568;2024-01-25T01:33:05;8.00;;;3.13;;
71127;SDS011;59249;59.736;30.568;2024-01-25T01:35:36;6.43;;;2.73;;
71127;SDS011;59249;59.736;30.568;2024-01-25T01:38:10;7.53;;;2.90;;
71127;SDS011;59249;59.736;30.568;2024-01-25T01:40:40;8.05;;;2.85;;
71127;SDS011;59249;59.736;30.568;2024-01-25T01:43:20;9.60;;;2.40;;
71127;SDS011;59249;59.736;30.568;2024-01-25T01:45:52;7.75;;;2.78;;
71127;SDS011;59249;59.736;30.568;2024-01-25T01:48:40;7.07;;;2.80;;
71127;SDS011;59249;59.736;30.568;2024-01-25T01:51:23;8.52;;;2.70;;
71127;SDS011;59249;59.736;30.568;2024-01-25T01:54:07;6.40;;;2.30;;
71127;SDS011;59249;59.736;30.568;2024-01-25T01:56:37;9.27;;;2.88;;
71127;SDS011;59249;59.736;30.568;2024-01-25T01:59:10;6.70;;;2.47;;
71127;SDS011;59249;59.736;30.568;2024-01-25T02:01:45;5.87;;;2.70;;
71127;SDS011;59249;59.736;30.568;2024-01-25T02:04:17;8.43;;;2.72;;
71127;SDS011;59249;59.736;30.568;2024-01-25T02:06:46;9.00;;;2.40;;
71127;SDS011;59249;59.736;30.568;2024-01-25T02:09:17;5.18;;;1.38;;
71127;SDS011;59249;59.736;30.568;2024-01-25T02:11:47;5.68;;;1.88;;
71127;SDS011;59249;59.736;30.568;2024-01-25T02:14:16;6.40;;;2.13;;
71127;SDS011;59249;59.736;30.568;2024-01-25T02:16:45;5.07;;;1.80;;
71127;SDS011;59249;59.736;30.568;2024-01-25T02:19:20;5.65;;;1.45;;
71127;SDS011;59249;59.736;30.568;2024-01-25T02:21:50;4.25;;;1.27;;
71127;SDS011;59249;59.736;30.568;2024-01-25T02:24:25;5.90;;;2.17;;
71127;SDS011;59249;59.736;30.568;2024-01-25T02:26:58;6.77;;;2.60;;
71127;SDS011;59249;59.736;30.568;2024-01-25T02:29:34;4.70;;;1.73;;
71127;SDS011;59249;59.736;30.568;2024-01-25T02:32:12;5.50;;;1.83;;
71127;SDS011;59249;59.736;30.568;2024-01-25T02:34:42;4.75;;;1.00;;
71127;SDS011;59249;59.736;30.568;2024-01-25T02:37:17;4.32;;;1.17;;
71127;SDS011;59249;59.736;30.568;2024-01-25T02:39:50;5.50;;;1.73;;
71127;SDS011;59249;59.736;30.568;2024-01-25T02:42:23;3.75;;;1.15;;
71127;SDS011;59249;59.736;30.568;2024-01-25T02:44:53;6.43;;;2.10;;
71127;SDS011;59249;59.736;30.568;2024-01-25T02:47:24;6.45;;;1.25;;
71127;SDS011;59249;59.736;30.568;2024-01-25T02:49:53;5.55;;;1.85;;
71127;SDS011;59249;59.736;30.568;2024-01-25T02:52:26;5.57;;;1.53;;
71127;SDS011;59249;59.736;30.568;2024-01-25T02:54:58;6.10;;;1.42;;
71127;SDS011;59249;59.736;30.568;2024-01-25T02:57:29;4.25;;;0.98;;
71127;SDS011;59249;59.736;30.568;2024-01-25T03:00:00;3.15;;;0.90;;
71127;SDS011;59249;59.736;30.568;2024-01-25T03:02:32;6.90;;;1.42;;
71127;SDS011;59249;59.736;30.568;2024-01-25T03:05:02;6.00;;;0.90;;
71127;SDS011;59249;59.736;30.568;2024-01-25T03:07:40;4.68;;;1.15;;
71127;SDS011;59249;59.736;30.568;2024-01-25T03:10:21;4.90;;;1.23;;
71127;SDS011;59249;59.736;30.568;2024-01-25T03:12:55;4.78;;;1.20;;
71127;SDS011;59249;59.736;30.568;2024-01-25T03:15:24;4.53;;;1.23;;
71127;SDS011;59249;59.736;30.568;2024-01-25T03:17:54;3.83;;;0.87;;
71127;SDS011;59249;59.736;30.568;2024-01-25T03:20:23;5.85;;;1.20;;
71127;SDS011;59249;59.736;30.568;2024-01-25T03:22:52;4.50;;;1.00;;
71127;SDS011;59249;59.736;30.568;2024-01-25T03:25:24;4.85;;;0.90;;
71127;SDS011;59249;59.736;30.568;2024-01-25T03:27:59;4.72;;;1.23;;
71127;SDS011;59249;59.736;30.568;2024-01-25T03:30:44;3.37;;;0.73;;
71127;SDS011;59249;59.736;30.568;2024-01-25T03:33:14;4.93;;;0.80;;
71127;SDS011;59249;59.736;30.568;2024-01-25T03:35:44;5.70;;;1.27;;
71127;SDS011;59249;59.736;30.568;2024-01-25T03:38:21;3.22;;;0.80;;
71127;SDS011;59249;59.736;30.568;2024-01-25T03:40:52;5.30;;;1.90;;
71127;SDS011;59249;59.736;30.568;2024-01-25T03:43:22;3.50;;;0.80;;
71127;SDS011;59249;59.736;30.568;2024-01-25T03:45:59;4.85;;;1.13;;
71127;SDS011;59249;59.736;30.568;2024-01-25T03:48:28;7.07;;;1.50;;
71127;SDS011;59249;59.736;30.568;2024-01-25T03:51:17;5.28;;;0.70;;
71127;SDS011;59249;59.736;30.568;2024-01-25T03:53:47;4.15;;;0.95;;
71127;SDS011;59249;59.736;30.568;2024-01-25T03:56:18;7.13;;;2.10;;
71127;SDS011;59249;59.736;30.568;2024-01-25T03:58:49;5.68;;;1.45;;
71127;SDS011;59249;59.736;30.568;2024-01-25T04:01:19;6.30;;;1.40;;
71127;SDS011;59249;59.736;30.568;2024-01-25T04:03:58;5.18;;;1.30;;
71127;SDS011;59249;59.736;30.568;2024-01-25T04:06:28;5.40;;;1.63;;
71127;SDS011;59249;59.736;30.568;2024-01-25T04:09:01;6.97;;;2.17;;
71127;SDS011;59249;59.736;30.568;2024-01-25T04:11:40;5.20;;;1.42;;
71127;SDS011;59249;59.736;30.568;2024-01-25T04:14:10;7.32;;;1.95;;
71127;SDS011;59249;59.736;30.568;2024-01-25T04:16:41;7.43;;;2.20;;
71127;SDS011;59249;59.736;30.568;2024-01-25T04:19:13;5.32;;;1.50;;
71127;SDS011;59249;59.736;30.568;2024-01-25T04:21:51;6.23;;;1.90;;
71127;SDS011;59249;59.736;30.568;2024-01-25T04:24:30;7.45;;;1.90;;
71127;SDS011;59249;59.736;30.568;2024-01-25T04:27:00;6.60;;;1.60;;
71127;SDS011;59249;59.736;30.568;2024-01-25T04:29:30;9.13;;;2.15;;
71127;SDS011;59249;59.736;30.568;2024-01-25T04:32:08;7.10;;;1.73;;
71127;SDS011;59249;59.736;30.568;2024-01-25T04:34:39;5.63;;;1.90;;
71127;SDS011;59249;59.736;30.568;2024-01-25T04:37:17;8.02;;;2.28;;
71127;SDS011;59249;59.736;30.568;2024-01-25T04:39:47;6.15;;;2.50;;
71127;SDS011;59249;59.736;30.568;2024-01-25T04:42:24;6.47;;;1.92;;
71127;SDS011;59249;59.736;30.568;2024-01-25T04:44:55;5.68;;;2.00;;
71127;SDS011;59249;59.736;30.568;2024-01-25T04:47:25;4.83;;;1.60;;
71127;SDS011;59249;59.736;30.568;2024-01-25T04:49:57;8.82;;;3.03;;
71127;SDS011;59249;59.736;30.568;2024-01-25T04:52:29;7.10;;;2.20;;
71127;SDS011;59249;59.736;30.568;2024-01-25T04:54:59;10.48;;;3.17;;
71127;SDS011;59249;59.736;30.568;2024-01-25T04:57:31;11.45;;;3.53;;
71127;SDS011;59249;59.736;30.568;2024-01-25T05:00:00;7.47;;;2.30;;
71127;SDS011;59249;59.736;30.568;2024-01-25T05:02:32;10.80;;;3.97;;
71127;SDS011;59249;59.736;30.568;2024-01-25T05:05:01;11.00;;;4.22;;
71127;SDS011;59249;59.736;30.568;2024-01-25T05:07:30;7.60;;;2.13;;
71127;SDS011;59249;59.736;30.568;2024-01-25T05:10:00;8.90;;;2.83;;
71127;SDS011;59249;59.736;30.568;2024-01-25T05:12:30;6.10;;;2.30;;
71127;SDS011;59249;59.736;30.568;2024-01-25T05:15:00;10.23;;;3.17;;
71127;SDS011;59249;59.736;30.568;2024-01-25T05:17:36;7.93;;;3.42;;
71127;SDS011;59249;59.736;30.568;2024-01-25T05:20:06;10.10;;;3.95;;
71127;SDS011;59249;59.736;30.568;2024-01-25T05:22:37;9.98;;;4.10;;
71127;SDS011;59249;59.736;30.568;2024-01-25T05:25:08;10.77;;;4.50;;
71127;SDS011;59249;59.736;30.568;2024-01-25T05:27:39;12.40;;;4.28;;
71127;SDS011;59249;59.736;30.568;2024-01-25T05:30:10;7.53;;;2.97;;
71127;SDS011;59249;59.736;30.568;2024-01-25T05:32:40;10.45;;;4.07;;
71127;SDS011;59249;59.736;30.568;2024-01-25T05:35:09;12.23;;;4.57;;
71127;SDS011;59249;59.736;30.568;2024-01-25T05:37:38;10.87;;;3.70;;
71127;SDS011;59249;59.736;30.568;2024-01-25T05:40:08;10.98;;;4.03;;
71127;SDS011;59249;59.736;30.568;2024-01-25T05:42:40;8.60;;;3.17;;
71127;SDS011;59249;59.736;30.568;2024-01-25T05:45:10;6.88;;;2.90;;
71127;SDS011;59249;59.736;30.568;2024-01-25T05:47:39;12.57;;;4.28;;
71127;SDS011;59249;59.736;30.568;2024-01-25T05:50:09;8.80;;;3.53;;
71127;SDS011;59249;59.736;30.568;2024-01-25T05:52:38;12.27;;;4.28;;
71127;SDS011;59249;59.736;30.568;2024-01-25T05:55:08;12.50;;;4.95;;
71127;SDS011;59249;59.736;30.568;2024-01-25T05:57:38;11.70;;;4.88;;
71127;SDS011;59249;59.736;30.568;2024-01-25T06:00:11;11.10;;;3.38;;
71127;SDS011;59249;59.736;30.568;2024-01-25T06:02:47;13.43;;;5.17;;
71127;SDS011;59249;59.736;30.568;2024-01-25T06:05:16;14.93;;;6.13;;
71127;SDS011;59249;59.736;30.568;2024-01-25T06:07:47;14.35;;;6.40;;
71127;SDS011;59249;59.736;30.568;2024-01-25T06:10:18;12.00;;;5.97;;
71127;SDS011;59249;59.736;30.568;2024-01-25T06:12:49;13.23;;;5.05;;
71127;SDS011;59249;59.736;30.568;2024-01-25T06:15:18;12.23;;;4.63;;
71127;SDS011;59249;59.736;30.568;2024-01-25T06:17:48;20.00;;;8.10;;
71127;SDS011;59249;59.736;30.568;2024-01-25T06:20:17;15.90;;;6.43;;
71127;SDS011;59249;59.736;30.568;2024-01-25T06:22:47;11.85;;;5.10;;
71127;SDS011;59249;59.736;30.568;2024-01-25T06:25:18;12.70;;;4.93;;
71127;SDS011;59249;59.736;30.568;2024-01-25T06:27:49;12.63;;;4.40;;
71127;SDS011;59249;59.736;30.568;2024-01-25T06:30:19;13.98;;;4.45;;
71127;SDS011;59249;59.736;30.568;2024-01-25T06:32:49;11.15;;;4.40;;
71127;SDS011;59249;59.736;30.568;2024-01-25T06:35:18;10.55;;;4.22;;
71127;SDS011;59249;59.736;30.568;2024-01-25T06:37:47;9.40;;;3.80;;
71127;SDS011;59249;59.736;30.568;2024-01-25T06:40:17;17.37;;;5.33;;
71127;SDS011;59249;59.736;30.568;2024-01-25T06:42:47;14.68;;;6.20;;
71127;SDS011;59249;59.736;30.568;2024-01-25T06:45:18;11.05;;;5.13;;
71127;SDS011;59249;59.736;30.568;2024-01-25T06:47:48;9.52;;;3.92;;
71127;SDS011;59249;59.736;30.568;2024-01-25T06:50:17;11.38;;;4.32;;
71127;SDS011;59249;59.736;30.568;2024-01-25T06:52:48;12.37;;;6.60;;
71127;SDS011;59249;59.736;30.568;2024-01-25T06:55:20;15.05;;;4.70;;
71127;SDS011;59249;59.736;30.568;2024-01-25T06:57:51;12.00;;;3.70;;
71127;SDS011;59249;59.736;30.568;2024-01-25T07:00:21;16.88;;;6.78;;
71127;SDS011;59249;59.736;30.568;2024-01-25T07:02:51;15.32;;;6.82;;
71127;SDS011;59249;59.736;30.568;2024-01-25T07:05:21;12.07;;;5.67;;
71127;SDS011;59249;59.736;30.568;2024-01-25T07:07:51;14.23;;;6.57;;
71127;SDS011;59249;59.736;30.568;2024-01-25T07:10:20;11.38;;;3.65;;
71127;SDS011;59249;59.736;30.568;2024-01-25T07:12:52;17.95;;;7.18;;
71127;SDS011;59249;59.736;30.568;2024-01-25T07:15:43;14.20;;;5.80;;
71127;SDS011;59249;59.736;30.568;2024-01-25T07:18:16;18.60;;;7.00;;
71127;SDS011;59249;59.736;30.568;2024-01-25T07:21:11;15.55;;;7.13;;
71127;SDS011;59249;59.736;30.568;2024-01-25T07:23:40;9.93;;;4.07;;
71127;SDS011;59249;59.736;30.568;2024-01-25T07:26:09;18.02;;;8.68;;
71127;SDS011;59249;59.736;30.568;2024-01-25T07:28:50;18.95;;;7.20;;
71127;SDS011;59249;59.736;30.568;2024-01-25T07:31:26;22.57;;;6.73;;
71127;SDS011;59249;59.736;30.568;2024-01-25T07:33:59;17.58;;;7.97;;
71127;SDS011;59249;59.736;30.568;2024-01-25T07:36:28;19.92;;;8.40;;
71127;SDS011;59249;59.736;30.568;2024-01-25T07:38:57;14.40;;;6.00;;
71127;SDS011;59249;59.736;30.568;2024-01-25T07:41:27;15.93;;;6.50;;
71127;SDS011;59249;59.736;30.568;2024-01-25T07:44:02;20.37;;;7.53;;
71127;SDS011;59249;59.736;30.568;2024-01-25T07:47:26;17.65;;;7.32;;
71127;SDS011;59249;59.736;30.568;2024-01-25T07:50:13;16.88;;;7.32;;
71127;SDS011;59249;59.736;30.568;2024-01-25T07:52:45;14.48;;;5.90;;
71127;SDS011;59249;59.736;30.568;2024-01-25T07:55:15;19.52;;;6.55;;
71127;SDS011;59249;59.736;30.568;2024-01-25T07:57:47;14.90;;;5.70;;
71127;SDS011;59249;59.736;30.568;2024-01-25T08:00:21;14.52;;;5.47;;
71127;SDS011;59249;59.736;30.568;2024-01-25T08:02:51;11.73;;;5.82;;
71127;SDS011;59249;59.736;30.568;2024-01-25T08:05:24;9.77;;;3.42;;
71127;SDS011;59249;59.736;30.568;2024-01-25T08:08:06;15.40;;;6.88;;
71127;SDS011;59249;59.736;30.568;2024-01-25T08:10:38;15.17;;;6.23;;
71127;SDS011;59249;59.736;30.568;2024-01-25T08:13:08;12.30;;;5.47;;
71127;SDS011;59249;59.736;30.568;2024-01-25T08:15:42;11.88;;;4.70;;
71127;SDS011;59249;59.736;30.568;2024-01-25T08:18:15;13.10;;;5.97;;
71127;SDS011;59249;59.736;30.568;2024-01-25T08:20:46;13.52;;;6.20;;
71127;SDS011;59249;59.736;30.568;2024-01-25T08:23:16;13.00;;;5.30;;
71127;SDS011;59249;59.736;30.568;2024-01-25T08:25:45;11.90;;;5.32;;
71127;SDS011;59249;59.736;30.568;2024-01-25T08:28:15;13.07;;;4.85;;
71127;SDS011;59249;59.736;30.568;2024-01-25T08:30:46;14.55;;;4.85;;
71127;SDS011;59249;59.736;30.568;2024-01-25T08:33:16;16.85;;;4.55;;
71127;SDS011;59249;59.736;30.568;2024-01-25T08:35:51;8.83;;;3.50;;
71127;SDS011;59249;59.736;30.568;2024-01-25T08:38:37;14.52;;;5.85;;
71127;SDS011;59249;59.736;30.568;2024-01-25T08:41:12;10.45;;;3.03;;
71127;SDS011;59249;59.736;30.568;2024-01-25T08:43:47;11.60;;;4.82;;
71127;SDS011;59249;59.736;30.568;2024-01-25T08:46:18;11.27;;;4.25;;
71127;SDS011;59249;59.736;30.568;2024-01-25T08:48:47;14.03;;;4.67;;
71127;SDS011;59249;59.736;30.568;2024-01-25T08:51:22;9.02;;;3.88;;
71127;SDS011;59249;59.736;30.568;2024-01-25T08:53:55;10.18;;;3.53;;
71127;SDS011;59249;59.736;30.568;2024-01-25T08:56:24;9.27;;;3.85;;
71127;SDS011;59249;59.736;30.568;2024-01-25T08:59:02;10.70;;;3.63;;
71127;SDS011;59249;59.736;30.568;2024-01-25T09:01:34;11.43;;;3.20;;
71127;SDS011;59249;59.736;30.568;2024-01-25T09:04:04;13.75;;;5.22;;
71127;SDS011;59249;59.736;30.568;2024-01-25T09:06:35;16.85;;;4.97;;
71127;SDS011;59249;59.736;30.568;2024-01-25T09:09:06;18.65;;;5.03;;
71127;SDS011;59249;59.736;30.568;2024-01-25T09:11:41;10.90;;;4.35;;
71127;SDS011;59249;59.736;30.568;2024-01-25T09:14:11;10.40;;;3.87;;
71127;SDS011;59249;59.736;30.568;2024-01-25T09:16:41;12.68;;;4.55;;
71127;SDS011;59249;59.736;30.568;2024-01-25T09:19:10;11.00;;;4.20;;
71127;SDS011;59249;59.736;30.568;2024-01-25T09:21:42;12.70;;;4.88;;
71127;SDS011;59249;59.736;30.568;2024-01-25T09:24:13;11.50;;;4.32;;
71127;SDS011;59249;59.736;30.568;2024-01-25T09:26:44;14.47;;;5.07;;
71127;SDS011;59249;59.736;30.568;2024-01-25T09:29:14;11.88;;;4.30;;
71127;SDS011;59249;59.736;30.568;2024-01-25T09:31:45;9.93;;;3.58;;
71127;SDS011;59249;59.736;30.568;2024-01-25T09:34:15;11.48;;;5.03;;
71127;SDS011;59249;59.736;30.568;2024-01-25T09:36:45;9.27;;;3.42;;
71127;SDS011;59249;59.736;30.568;2024-01-25T09:39:14;11.53;;;3.87;;
71127;SDS011;59249;59.736;30.568;2024-01-25T09:41:48;14.95;;;4.40;;
71127;SDS011;59249;59.736;30.568;2024-01-25T09:44:21;14.35;;;4.63;;
71127;SDS011;59249;59.736;30.568;2024-01-25T09:46:54;5.75;;;1.52;;
71127;SDS011;59249;59.736;30.568;2024-01-25T09:49:23;9.20;;;3.75;;
71127;SDS011;59249;59.736;30.568;2024-01-25T09:51:54;8.37;;;2.63;;
71127;SDS011;59249;59.736;30.568;2024-01-25T09:54:24;6.78;;;2.22;;
71127;SDS011;59249;59.736;30.568;2024-01-25T09:56:56;10.38;;;3.60;;
71127;SDS011;59249;59.736;30.568;2024-01-25T09:59:26;11.85;;;3.65;;
71127;SDS011;59249;59.736;30.568;2024-01-25T10:01:58;8.07;;;3.13;;
71127;SDS011;59249;59.736;30.568;2024-01-25T10:04:31;7.83;;;2.30;;
71127;SDS011;59249;59.736;30.568;2024-01-25T10:07:00;2.90;;;1.23;;
71127;SDS011;59249;59.736;30.568;2024-01-25T10:09:37;12.32;;;4.07;;
71127;SDS011;59249;59.736;30.568;2024-01-25T10:12:14;8.43;;;3.42;;
71127;SDS011;59249;59.736;30.568;2024-01-25T10:14:45;6.97;;;3.17;;
71127;SDS011;59249;59.736;30.568;2024-01-25T10:17:18;8.87;;;2.57;;
71127;SDS011;59249;59.736;30.568;2024-01-25T10:19:47;8.00;;;3.55;;
71127;SDS011;59249;59.736;30.568;2024-01-25T10:22:18;5.22;;;1.73;;
71127;SDS011;59249;59.736;30.568;2024-01-25T10:24:48;6.88;;;2.78;;
71127;SDS011;59249;59.736;30.568;2024-01-25T10:27:18;5.47;;;2.22;;
71127;SDS011;59249;59.736;30.568;2024-01-25T10:29:47;4.30;;;1.40;;
71127;SDS011;59249;59.736;30.568;2024-01-25T10:32:20;9.43;;;3.60;;
71127;SDS011;59249;59.736;30.568;2024-01-25T10:34:50;4.38;;;1.52;;
71127;SDS011;59249;59.736;30.568;2024-01-25T10:37:21;8.25;;;3.03;;
71127;SDS011;59249;59.736;30.568;2024-01-25T10:39:54;7.43;;;1.70;;
71127;SDS011;59249;59.736;30.568;2024-01-25T10:42:34;8.30;;;2.67;;
71127;SDS011;59249;59.736;30.568;2024-01-25T10:45:06;8.32;;;3.25;;
71127;SDS011;59249;59.736;30.568;2024-01-25T10:47:39;8.85;;;3.30;;
71127;SDS011;59249;59.736;30.568;2024-01-25T10:50:09;5.18;;;1.80;;
71127;SDS011;59249;59.736;30.568;2024-01-25T10:52:42;10.23;;;4.55;;
71127;SDS011;59249;59.736;30.568;2024-01-25T10:55:13;6.53;;;2.23;;
71127;SDS011;59249;59.736;30.568;2024-01-25T10:57:44;8.82;;;3.33;;
71127;SDS011;59249;59.736;30.568;2024-01-25T11:00:15;4.25;;;1.45;;
71127;SDS011;59249;59.736;30.568;2024-01-25T11:02:46;5.07;;;1.63;;
71127;SDS011;59249;59.736;30.568;2024-01-25T11:05:17;6.97;;;2.85;;
71127;SDS011;59249;59.736;30.568;2024-01-25T11:07:48;10.90;;;2.83;;
71127;SDS011;59249;59.736;30.568;2024-01-25T11:10:19;7.40;;;2.72;;
71127;SDS011;59249;59.736;30.568;2024-01-25T11:12:50;8.45;;;2.47;;
71127;SDS011;59249;59.736;30.568;2024-01-25T11:15:21;10.18;;;3.47;;
71127;SDS011;59249;59.736;30.568;2024-01-25T11:17:53;4.22;;;1.52;;
71127;SDS011;59249;59.736;30.568;2024-01-25T11:20:23;9.23;;;3.80;;
71127;SDS011;59249;59.736;30.568;2024-01-25T11:22:55;11.13;;;4.18;;
71127;SDS011;59249;59.736;30.568;2024-01-25T11:25:29;6.18;;;2.40;;
71127;SDS011;59249;59.736;30.568;2024-01-25T11:28:01;5.43;;;1.88;;
71127;SDS011;59249;59.736;30.568;2024-01-25T11:30:32;12.88;;;4.88;;
71127;SDS011;59249;59.736;30.568;2024-01-25T11:33:06;11.60;;;5.10;;
71127;SDS011;59249;59.736;30.568;2024-01-25T11:35:36;11.55;;;4.07;;
71127;SDS011;59249;59.736;30.568;2024-01-25T11:38:06;9.23;;;3.42;;
71127;SDS011;59249;59.736;30.568;2024-01-25T11:40:36;9.27;;;2.80;;
71127;SDS011;59249;59.736;30.568;2024-01-25T11:43:05;9.82;;;4.85;;
71127;SDS011;59249;59.736;30.568;2024-01-25T11:45:39;15.40;;;6.80;;
71127;SDS011;59249;59.736;30.568;2024-01-25T11:48:12;13.63;;;4.65;;
71127;SDS011;59249;59.736;30.568;2024-01-25T11:50:41;4.95;;;2.67;;
71127;SDS011;59249;59.736;30.568;2024-01-25T11:53:11;8.20;;;2.90;;
71127;SDS011;59249;59.736;30.568;2024-01-25T11:55:40;6.03;;;2.33;;
71127;SDS011;59249;59.736;30.568;2024-01-25T11:58:09;7.83;;;4.30;;
71127;SDS011;59249;59.736;30.568;2024-01-25T12:00:39;5.53;;;2.47;;
71127;SDS011;59249;59.736;30.568;2024-01-25T12:03:08;8.00;;;3.25;;
71127;SDS011;59249;59.736;30.568;2024-01-25T12:05:39;9.43;;;3.67;;
71127;SDS011;59249;59.736;30.568;2024-01-25T12:08:10;9.90;;;3.47;;
71127;SDS011;59249;59.736;30.568;2024-01-25T12:10:42;6.67;;;2.60;;
71127;SDS011;59249;59.736;30.568;2024-01-25T12:13:12;6.07;;;1.95;;
71127;SDS011;59249;59.736;30.568;2024-01-25T12:15:44;11.07;;;4.18;;
71127;SDS011;59249;59.736;30.568;2024-01-25T12:18:25;8.20;;;3.80;;
71127;SDS011;59249;59.736;30.568;2024-01-25T12:21:02;8.75;;;3.45;;
71127;SDS011;59249;59.736;30.568;2024-01-25T12:23:35;13.03;;;5.10;;
71127;SDS011;59249;59.736;30.568;2024-01-25T12:26:07;12.57;;;5.88;;
71127;SDS011;59249;59.736;30.568;2024-01-25T12:28:39;8.27;;;2.85;;
71127;SDS011;59249;59.736;30.568;2024-01-25T12:31:10;6.80;;;3.05;;
71127;SDS011;59249;59.736;30.568;2024-01-25T12:33:41;16.00;;;7.88;;
71127;SDS011;59249;59.736;30.568;2024-01-25T12:36:12;15.67;;;6.07;;
71127;SDS011;59249;59.736;30.568;2024-01-25T12:38:41;9.82;;;4.78;;
71127;SDS011;59249;59.736;30.568;2024-01-25T12:41:11;7.60;;;2.90;;
71127;SDS011;59249;59.736;30.568;2024-01-25T12:43:41;14.93;;;6.03;;
71127;SDS011;59249;59.736;30.568;2024-01-25T12:46:10;5.80;;;3.13;;
71127;SDS011;59249;59.736;30.568;2024-01-25T12:48:53;14.87;;;6.13;;
71127;SDS011;59249;59.736;30.568;2024-01-25T12:51:26;15.15;;;6.43;;
71127;SDS011;59249;59.736;30.568;2024-01-25T12:53:55;15.68;;;6.25;;
71127;SDS011;59249;59.736;30.568;2024-01-25T12:56:25;9.50;;;3.47;;
71127;SDS011;59249;59.736;30.568;2024-01-25T12:58:58;7.85;;;3.92;;
71127;SDS011;59249;59.736;30.568;2024-01-25T13:01:28;11.83;;;5.83;;
71127;SDS011;59249;59.736;30.568;2024-01-25T13:04:01;11.05;;;3.22;;
71127;SDS011;59249;59.736;30.568;2024-01-25T13:06:38;14.13;;;5.15;;
71127;SDS011;59249;59.736;30.568;2024-01-25T13:09:09;9.52;;;3.28;;
71127;SDS011;59249;59.736;30.568;2024-01-25T13:11:40;7.50;;;2.80;;
71127;SDS011;59249;59.736;30.568;2024-01-25T13:14:11;9.20;;;2.50;;
71127;SDS011;59249;59.736;30.568;2024-01-25T13:16:45;5.95;;;3.17;;
71127;SDS011;59249;59.736;30.568;2024-01-25T13:19:18;11.15;;;4.15;;
71127;SDS011;59249;59.736;30.568;2024-01-25T13:21:53;6.22;;;2.60;;
71127;SDS011;59249;59.736;30.568;2024-01-25T13:24:23;11.70;;;5.38;;
71127;SDS011;59249;59.736;30.568;2024-01-25T13:26:52;9.00;;;3.40;;
71127;SDS011;59249;59.736;30.568;2024-01-25T13:29:21;5.30;;;1.38;;
71127;SDS011;59249;59.736;30.568;2024-01-25T13:31:51;6.20;;;2.15;;
71127;SDS011;59249;59.736;30.568;2024-01-25T13:34:20;8.27;;;3.35;;
71127;SDS011;59249;59.736;30.568;2024-01-25T13:36:49;8.30;;;2.92;;
71127;SDS011;59249;59.736;30.568;2024-01-25T13:39:25;5.00;;;2.10;;
71127;SDS011;59249;59.736;30.568;2024-01-25T13:41:55;4.70;;;2.10;;
71127;SDS011;59249;59.736;30.568;2024-01-25T13:44:24;7.30;;;2.55;;
71127;SDS011;59249;59.736;30.568;2024-01-25T13:46:53;7.38;;;3.00;;
71127;SDS011;59249;59.736;30.568;2024-01-25T13:49:26;8.98;;;3.58;;
71127;SDS011;59249;59.736;30.568;2024-01-25T13:52:00;8.63;;;4.47;;
71127;SDS011;59249;59.736;30.568;2024-01-25T13:54:31;5.80;;;2.83;;
71127;SDS011;59249;59.736;30.568;2024-01-25T13:57:09;7.40;;;3.42;;
71127;SDS011;59249;59.736;30.568;2024-01-25T13:59:46;12.30;;;6.65;;
71127;SDS011;59249;59.736;30.568;2024-01-25T14:02:16;7.57;;;3.50;;
71127;SDS011;59249;59.736;30.568;2024-01-25T14:04:50;12.63;;;5.83;;
71127;SDS011;59249;59.736;30.568;2024-01-25T14:07:21;5.38;;;1.85;;
71127;SDS011;59249;59.736;30.568;2024-01-25T14:09:50;4.53;;;1.70;;
71127;SDS011;59249;59.736;30.568;2024-01-25T14:12:20;6.07;;;2.30;;
71127;SDS011;59249;59.736;30.568;2024-01-25T14:14:49;5.70;;;1.90;;
71127;SDS011;59249;59.736;30.568;2024-01-25T14:17:20;3.60;;;1.30;;
71127;SDS011;59249;59.736;30.568;2024-01-25T14:19:50;7.68;;;2.92;;
71127;SDS011;59249;59.736;30.568;2024-01-25T14:22:21;4.75;;;1.85;;
71127;SDS011;59249;59.736;30.568;2024-01-25T14:24:58;5.25;;;1.88;;
71127;SDS011;59249;59.736;30.568;2024-01-25T14:27:29;5.93;;;2.15;;
71127;SDS011;59249;59.736;30.568;2024-01-25T14:30:00;7.10;;;3.07;;
71127;SDS011;59249;59.736;30.568;2024-01-25T14:32:31;5.85;;;2.13;;
71127;SDS011;59249;59.736;30.568;2024-01-25T14:35:01;11.18;;;3.53;;
71127;SDS011;59249;59.736;30.568;2024-01-25T14:37:32;14.00;;;3.85;;
71127;SDS011;59249;59.736;30.568;2024-01-25T14:40:01;9.00;;;2.33;;
71127;SDS011;59249;59.736;30.568;2024-01-25T14:42:50;5.43;;;2.30;;
71127;SDS011;59249;59.736;30.568;2024-01-25T14:45:20;6.72;;;2.35;;
71127;SDS011;59249;59.736;30.568;2024-01-25T14:47:50;3.50;;;1.33;;
71127;SDS011;59249;59.736;30.568;2024-01-25T14:50:20;13.35;;;4.15;;
71127;SDS011;59249;59.736;30.568;2024-01-25T14:52:56;8.02;;;3.05;;
71127;SDS011;59249;59.736;30.568;2024-01-25T14:55:26;9.33;;;3.63;;
71127;SDS011;59249;59.736;30.568;2024-01-25T14:57:55;5.55;;;2.15;;
71127;SDS011;59249;59.736;30.568;2024-01-25T15:00:24;10.95;;;2.88;;